createdAt,value
2018-06-24T00:02:25.667Z,100938.70
2018-06-24T00:04:54.904Z,100941.74
2018-06-24T00:07:23.840Z,100935.86
2018-06-24T00:09:52.849Z,100926.58
2018-06-24T00:12:22.797Z,100924.22
2018-06-24T00:14:51.800Z,100925.94
2018-06-24T00:17:20.634Z,100934.02
2018-06-24T00:19:49.581Z,100930.47
2018-06-24T00:22:18.614Z,100934.36
2018-06-24T00:24:47.872Z,100928.97
2018-06-24T00:27:17.072Z,100936.56
2018-06-24T00:29:46.078Z,100932.19
2018-06-24T00:32:15.208Z,100928.14
2018-06-24T00:34:44.523Z,100925.45
2018-06-24T00:37:13.651Z,100916.13
2018-06-24T00:39:42.617Z,100912.08
2018-06-24T00:42:11.570Z,100909.39
2018-06-24T00:44:40.636Z,100907.18
2018-06-24T00:47:09.832Z,100915.27
2018-06-24T00:49:38.737Z,100911.22
2018-06-24T00:52:07.601Z,100908.04
2018-06-24T00:54:36.716Z,100911.22
2018-06-24T00:57:05.804Z,100922.01
2018-06-24T00:59:45.772Z,100919.47
2018-06-24T01:02:14.870Z,100924.00
2018-06-24T01:04:43.755Z,100935.16
2018-06-24T01:07:12.902Z,100931.75
2018-06-24T01:09:41.943Z,100927.19
2018-06-24T01:12:11.096Z,100920.96
2018-06-24T01:14:40.293Z,100926.69
2018-06-24T01:17:09.596Z,100926.69
2018-06-24T01:19:38.533Z,100930.89
2018-06-24T01:22:07.610Z,100931.75
2018-06-24T01:24:36.727Z,100948.75
2018-06-24T01:27:05.638Z,100947.92
2018-06-24T01:29:34.581Z,100945.72
2018-06-24T01:32:03.609Z,100937.48
2018-06-24T01:34:32.688Z,100948.41
2018-06-24T01:37:01.718Z,100953.31
2018-06-24T01:39:30.761Z,100953.66
2018-06-24T01:41:59.802Z,100954.52
2018-06-24T01:44:28.748Z,100950.47
2018-06-24T01:46:57.664Z,100952.67
2018-06-24T01:49:26.837Z,100950.84
2018-06-24T01:51:55.881Z,100953.02
2018-06-24T01:54:25.083Z,100964.66
2018-06-24T01:56:53.952Z,100958.78
2018-06-24T01:59:23.091Z,100956.45
2018-06-24T02:01:52.155Z,100959.15
2018-06-24T02:04:21.146Z,100957.80
2018-06-24T02:06:50.145Z,100962.19
2018-06-24T02:09:19.146Z,100960.34
2018-06-24T02:11:47.988Z,100963.41
2018-06-24T02:14:16.876Z,100960.72
2018-06-24T02:16:45.870Z,100958.02
2018-06-24T02:19:14.766Z,100963.75
2018-06-24T02:21:43.717Z,100969.14
2018-06-24T02:24:12.757Z,100965.09
2018-06-24T02:26:41.683Z,100971.84
2018-06-24T02:29:10.583Z,100961.05
2018-06-24T02:31:39.631Z,100965.47
2018-06-24T02:34:08.522Z,100961.91
2018-06-24T02:36:37.414Z,100962.28
2018-06-24T02:39:08.781Z,100964.46
2018-06-24T02:41:37.718Z,100966.33
2018-06-24T02:44:06.661Z,100965.81
2018-06-24T02:46:35.656Z,100961.77
2018-06-24T02:49:04.745Z,100971.09
2018-06-24T02:51:33.702Z,100969.73
2018-06-24T02:54:02.721Z,100973.78
2018-06-24T02:56:31.503Z,100973.78
2018-06-24T02:59:00.464Z,100976.97
2018-06-24T03:01:29.290Z,100977.34
2018-06-24T03:03:59.116Z,100977.67
2018-06-24T03:06:28.166Z,100978.53
2018-06-24T03:08:57.162Z,100980.25
2018-06-24T03:11:26.241Z,100979.39
2018-06-24T03:13:55.215Z,100980.25
2018-06-24T03:16:24.230Z,100982.09
2018-06-24T03:18:53.773Z,100987.48
2018-06-24T03:21:22.994Z,100986.99
2018-06-24T03:23:52.133Z,100986.99
2018-06-24T03:26:21.094Z,100986.99
2018-06-24T03:28:50.111Z,100987.86
2018-06-24T03:31:19.023Z,100987.33
2018-06-24T03:33:47.808Z,100990.55
2018-06-24T03:36:16.691Z,100998.64
2018-06-24T03:38:45.807Z,100997.78
2018-06-24T03:41:14.890Z,100999.47
2018-06-24T03:43:43.798Z,101003.52
2018-06-24T03:46:12.769Z,101001.34
2018-06-24T03:48:41.572Z,101006.21
2018-06-24T03:51:10.740Z,101001.34
2018-06-24T03:53:39.768Z,101009.43
2018-06-24T03:56:08.943Z,101014.30
2018-06-24T03:58:38.009Z,101022.77
2018-06-24T04:01:07.314Z,101019.20
2018-06-24T04:03:36.264Z,101026.17
2018-06-24T04:06:05.422Z,101011.53
2018-06-24T04:08:34.299Z,101025.31
2018-06-24T04:11:03.370Z,101020.28
2018-06-24T04:13:33.000Z,101021.15
2018-06-24T04:16:05.201Z,101020.66
2018-06-24T04:18:38.826Z,101028.59
2018-06-24T04:21:08.009Z,101015.97
2018-06-24T04:23:37.084Z,101023.05
2018-06-24T04:26:06.849Z,101028.33
2018-06-24T04:28:36.072Z,101024.77
2018-06-24T04:31:05.173Z,101027.84
2018-06-24T04:33:34.895Z,101035.41
2018-06-24T04:36:04.184Z,101037.63
2018-06-24T04:38:33.281Z,101032.72
2018-06-24T04:41:02.508Z,101032.23
2018-06-24T04:43:31.425Z,101034.44
2018-06-24T04:46:00.982Z,101041.67
2018-06-24T04:48:30.141Z,101036.77
2018-06-24T04:50:59.228Z,101041.18
2018-06-24T04:53:28.154Z,101041.89
2018-06-24T04:55:57.316Z,101041.98
2018-06-24T04:58:26.202Z,101043.56
2018-06-24T05:00:55.142Z,101044.76
2018-06-24T05:03:24.915Z,101046.33
2018-06-24T05:05:53.886Z,101040.17
2018-06-24T05:08:22.955Z,101040.23
2018-06-24T05:10:52.100Z,101051.13
2018-06-24T05:13:21.299Z,101048.20
2018-06-24T05:15:50.210Z,101051.11
2018-06-24T05:18:20.000Z,101055.38
2018-06-24T05:20:49.241Z,101056.30
2018-06-24T05:23:18.354Z,101057.87
2018-06-24T05:25:47.487Z,101059.29
2018-06-24T05:28:16.372Z,101061.72
2018-06-24T05:30:45.325Z,101065.16
2018-06-24T05:33:14.463Z,101069.91
2018-06-24T05:35:43.359Z,101070.62
2018-06-24T05:38:12.260Z,101072.19
2018-06-24T05:40:41.163Z,101084.55
2018-06-24T05:43:10.307Z,101082.22
2018-06-24T05:45:39.409Z,101092.00
2018-06-24T05:48:08.327Z,101090.66
2018-06-24T05:50:37.459Z,101092.00
2018-06-24T05:53:06.524Z,101086.76
2018-06-24T05:55:35.523Z,101087.25
2018-06-24T05:58:04.776Z,101092.65
2018-06-24T06:00:33.715Z,101104.95
2018-06-24T06:03:02.763Z,101104.95
2018-06-24T06:05:31.883Z,101106.79
2018-06-24T06:08:00.859Z,101108.14
2018-06-24T06:10:29.888Z,101103.59
2018-06-24T06:12:58.960Z,101099.89
2018-06-24T06:15:27.893Z,101098.05
2018-06-24T06:17:56.938Z,101095.72
2018-06-24T06:20:25.874Z,101106.36
2018-06-24T06:22:54.879Z,101095.94
2018-06-24T06:25:23.963Z,101107.08
2018-06-24T06:27:52.913Z,101102.53
2018-06-24T06:30:22.325Z,101106.95
2018-06-24T06:32:51.585Z,101105.11
2018-06-24T06:35:20.637Z,101104.96
2018-06-24T06:37:49.623Z,101110.73
2018-06-24T06:40:18.609Z,101115.27
2018-06-24T06:42:47.841Z,101113.77
2018-06-24T06:45:16.954Z,101114.14
2018-06-24T06:47:45.922Z,101119.88
2018-06-24T06:50:14.940Z,101114.84
2018-06-24T06:52:43.945Z,101110.15
2018-06-24T06:55:12.971Z,101112.58
2018-06-24T06:57:41.962Z,101108.03
2018-06-24T07:00:11.063Z,101106.04
2018-06-24T07:02:40.201Z,101104.05
2018-06-24T07:05:09.262Z,101103.44
2018-06-24T07:07:38.444Z,101100.95
2018-06-24T07:10:07.623Z,101100.30
2018-06-24T07:12:36.628Z,101095.61
2018-06-24T07:15:06.007Z,101097.17
2018-06-24T07:17:35.104Z,101096.06
2018-06-24T07:20:04.296Z,101093.09
2018-06-24T07:22:34.063Z,101090.75
2018-06-24T07:25:03.219Z,101092.31
2018-06-24T07:27:32.223Z,101090.81
2018-06-24T07:30:01.214Z,101096.42
2018-06-24T07:32:30.370Z,101090.87
2018-06-24T07:34:59.491Z,101086.20
2018-06-24T07:37:28.414Z,101089.23
2018-06-24T07:39:57.611Z,101091.81
2018-06-24T07:42:26.677Z,101092.67
2018-06-24T07:44:55.742Z,101091.17
2018-06-24T07:47:24.896Z,101085.27
2018-06-24T07:49:53.983Z,101092.36
2018-06-24T07:52:23.018Z,101092.73
2018-06-24T07:54:52.068Z,101086.47
2018-06-24T07:57:21.170Z,101085.98
2018-06-24T07:59:50.274Z,101085.98
2018-06-24T08:02:19.458Z,101084.25
2018-06-24T08:04:48.511Z,101081.43
2018-06-24T08:07:17.386Z,101083.77
2018-06-24T08:09:46.424Z,101079.22
2018-06-24T08:12:15.544Z,101083.77
2018-06-24T08:14:44.479Z,101074.30
2018-06-24T08:17:13.528Z,101085.27
2018-06-24T08:19:42.487Z,101083.43
2018-06-24T08:22:11.419Z,101087.48
2018-06-24T08:24:40.601Z,101091.17
2018-06-24T08:27:09.649Z,101090.67
2018-06-24T08:29:38.883Z,101099.64
2018-06-24T08:32:08.015Z,101098.78
2018-06-24T08:34:37.068Z,101092.36
2018-06-24T08:37:06.192Z,101093.50
2018-06-24T08:39:35.145Z,101096.36
2018-06-24T08:42:04.361Z,101090.09
2018-06-24T08:44:33.517Z,101093.29
2018-06-24T08:47:02.579Z,101098.36
2018-06-24T08:49:31.638Z,101094.80
2018-06-24T08:52:00.765Z,101091.23
2018-06-24T08:54:29.767Z,101103.02
2018-06-24T08:56:59.068Z,101100.84
2018-06-24T08:59:28.146Z,101089.67
2018-06-24T09:01:57.272Z,101100.97
2018-06-24T09:04:26.508Z,101103.67
2018-06-24T09:06:55.545Z,101100.63
2018-06-24T09:09:24.699Z,101107.52
2018-06-24T09:11:53.948Z,101106.66
2018-06-24T09:14:23.003Z,101101.89
2018-06-24T09:16:51.990Z,101103.25
2018-06-24T09:19:21.041Z,101106.59
2018-06-24T09:21:50.018Z,101106.23
2018-06-24T09:24:19.055Z,101114.70
2018-06-24T09:26:48.277Z,101117.03
2018-06-24T09:29:17.351Z,101114.48
2018-06-24T09:31:46.436Z,101107.24
2018-06-24T09:34:15.556Z,101107.24
2018-06-24T09:36:44.812Z,101103.31
2018-06-24T09:39:14.072Z,101109.23
2018-06-24T09:41:43.126Z,101116.94
2018-06-24T09:44:12.153Z,101107.98
2018-06-24T09:46:41.183Z,101111.17
2018-06-24T09:49:10.161Z,101121.11
2018-06-24T09:51:39.090Z,101114.88
2018-06-24T09:54:08.187Z,101123.97
2018-06-24T09:56:37.281Z,101119.21
2018-06-24T09:59:06.342Z,101123.05
2018-06-24T10:01:35.437Z,101121.81
2018-06-24T10:04:04.626Z,101129.58
2018-06-24T10:06:33.576Z,101129.86
2018-06-24T10:09:02.723Z,101129.48
2018-06-24T10:11:31.767Z,101142.28
2018-06-24T10:14:00.943Z,101131.11
2018-06-24T10:16:29.949Z,101129.05
2018-06-24T10:18:59.100Z,101137.80
2018-06-24T10:21:28.238Z,101140.66
2018-06-24T10:23:57.253Z,101142.98
2018-06-24T10:26:26.431Z,101137.36
2018-06-24T10:28:55.335Z,101139.57
2018-06-24T10:31:24.298Z,101141.56
2018-06-24T10:33:53.384Z,101141.19
2018-06-24T10:36:22.522Z,101132.72
2018-06-24T10:38:51.472Z,101127.48
2018-06-24T10:41:20.561Z,101133.85
2018-06-24T10:43:49.583Z,101133.85
2018-06-24T10:46:18.704Z,101135.35
2018-06-24T10:48:47.804Z,101142.59
2018-06-24T10:51:16.867Z,101131.95
2018-06-24T10:53:45.999Z,101144.09
2018-06-24T10:56:15.298Z,101136.00
2018-06-24T10:58:44.069Z,101142.37
2018-06-24T11:01:12.952Z,101143.36
2018-06-24T11:03:41.869Z,101142.00
2018-06-24T11:06:10.723Z,101134.42
2018-06-24T11:08:39.925Z,101138.48
2018-06-24T11:11:08.950Z,101132.70
2018-06-24T11:13:38.174Z,101135.03
2018-06-24T11:16:07.405Z,101131.51
2018-06-24T11:18:36.706Z,101129.30
2018-06-24T11:21:05.822Z,101130.65
2018-06-24T11:23:34.903Z,101126.23
2018-06-24T11:26:03.946Z,101125.37
2018-06-24T11:28:33.036Z,101129.41
2018-06-24T11:31:01.957Z,101131.29
2018-06-24T11:33:31.215Z,101129.08
2018-06-24T11:36:00.298Z,101124.02
2018-06-24T11:38:29.179Z,101128.59
2018-06-24T11:40:58.300Z,101133.62
2018-06-24T11:43:27.194Z,101131.78
2018-06-24T11:45:56.210Z,101132.76
2018-06-24T11:48:25.806Z,101128.71
2018-06-24T11:50:54.680Z,101125.03
2018-06-24T11:53:24.272Z,101122.45
2018-06-24T11:55:53.306Z,101121.59
2018-06-24T11:58:22.188Z,101124.28
2018-06-24T12:00:51.286Z,101127.14
2018-06-24T12:03:20.271Z,101128.48
2018-06-24T12:05:50.130Z,101128.12
2018-06-24T12:08:19.219Z,101132.69
2018-06-24T12:10:48.525Z,101137.23
2018-06-24T12:13:17.601Z,101132.80
2018-06-24T12:15:46.438Z,101129.77
2018-06-24T12:18:15.692Z,101138.36
2018-06-24T12:20:44.884Z,101125.34
2018-06-24T12:23:14.134Z,101128.53
2018-06-24T12:25:43.340Z,101125.34
2018-06-24T12:28:12.218Z,101129.02
2018-06-24T12:30:41.413Z,101121.94
2018-06-24T12:33:10.364Z,101120.22
2018-06-24T12:35:39.346Z,101113.47
2018-06-24T12:38:08.132Z,101115.69
2018-06-24T12:40:37.097Z,101114.33
2018-06-24T12:43:06.136Z,101114.82
2018-06-24T12:45:34.962Z,101103.69
2018-06-24T12:48:04.186Z,101105.03
2018-06-24T12:50:33.094Z,101107.73
2018-06-24T12:53:02.133Z,101109.09
2018-06-24T12:55:31.084Z,101110.06
2018-06-24T12:58:00.217Z,101112.77
2018-06-24T13:00:29.695Z,101112.77
2018-06-24T13:02:58.487Z,101111.41
2018-06-24T13:05:27.424Z,101109.09
2018-06-24T13:07:56.543Z,101107.86
2018-06-24T13:10:25.685Z,101104.67
2018-06-24T13:12:54.633Z,101103.31
2018-06-24T13:15:23.677Z,101104.30
2018-06-24T13:17:52.712Z,101098.41
2018-06-24T13:20:21.617Z,101090.80
2018-06-24T13:22:50.647Z,101092.52
2018-06-24T13:25:19.815Z,101086.63
2018-06-24T13:27:48.895Z,101087.13
2018-06-24T13:30:18.072Z,101087.98
2018-06-24T13:32:47.014Z,101088.47
2018-06-24T13:35:16.859Z,101097.77
2018-06-24T13:37:45.966Z,101097.77
2018-06-24T13:40:14.945Z,101107.22
2018-06-24T13:42:43.990Z,101100.98
2018-06-24T13:45:12.794Z,101099.64
2018-06-24T13:47:41.815Z,101100.84
2018-06-24T13:50:10.913Z,101094.58
2018-06-24T13:52:39.947Z,101097.77
2018-06-24T13:55:09.114Z,101100.12
2018-06-24T13:57:38.399Z,101108.56
2018-06-24T14:00:07.516Z,101104.18
2018-06-24T14:02:36.500Z,101107.73
2018-06-24T14:05:05.491Z,101113.13
2018-06-24T14:07:34.353Z,101109.09
2018-06-24T14:10:03.278Z,101099.27
2018-06-24T14:12:32.327Z,101105.16
2018-06-24T14:15:01.377Z,101097.92
2018-06-24T14:17:30.451Z,101100.25
2018-06-24T14:19:59.463Z,101101.59
2018-06-24T14:22:28.440Z,101104.67
2018-06-24T14:24:57.519Z,101095.38
2018-06-24T14:27:26.598Z,101094.02
2018-06-24T14:29:55.621Z,101096.72
2018-06-24T14:32:24.732Z,101110.70
2018-06-24T14:34:53.778Z,101105.31
2018-06-24T14:37:22.780Z,101096.84
2018-06-24T14:39:51.931Z,101107.63
2018-06-24T14:42:20.966Z,101102.73
2018-06-24T14:44:50.077Z,101099.54
2018-06-24T14:47:19.101Z,101095.64
2018-06-24T14:49:48.322Z,101092.42
2018-06-24T14:52:17.808Z,101096.99
2018-06-24T14:54:46.756Z,101096.99
2018-06-24T14:57:15.903Z,101083.50
2018-06-24T14:59:45.076Z,101089.72
2018-06-24T15:02:14.211Z,101082.97
2018-06-24T15:04:43.385Z,101091.59
2018-06-24T15:07:12.383Z,101084.84
2018-06-24T15:09:41.455Z,101081.29
2018-06-24T15:12:10.622Z,101094.30
2018-06-24T15:14:39.916Z,101086.20
2018-06-24T15:17:09.100Z,101079.94
2018-06-24T15:19:38.118Z,101081.29
2018-06-24T15:22:07.035Z,101077.24
2018-06-24T15:24:35.935Z,101082.15
2018-06-24T15:27:05.221Z,101086.53
2018-06-24T15:29:34.370Z,101086.20
2018-06-24T15:32:03.373Z,101080.80
2018-06-24T15:34:32.427Z,101084.33
2018-06-24T15:37:01.500Z,101078.92
2018-06-24T15:39:30.423Z,101081.29
2018-06-24T15:41:59.594Z,101084.33
2018-06-24T15:44:28.727Z,101072.70
2018-06-24T15:46:57.741Z,101077.24
2018-06-24T15:49:27.048Z,101075.89
2018-06-24T15:51:56.221Z,101083.50
2018-06-24T15:54:25.320Z,101092.42
2018-06-24T15:56:54.462Z,101089.72
2018-06-24T15:59:23.607Z,101089.72
2018-06-24T16:01:52.724Z,101088.52
2018-06-24T16:04:21.879Z,101087.55
2018-06-24T16:06:50.899Z,101085.67
2018-06-24T16:09:20.684Z,101083.98
2018-06-24T16:11:49.719Z,101089.38
2018-06-24T16:14:18.736Z,101086.69
2018-06-24T16:16:47.878Z,101083.12
2018-06-24T16:19:17.087Z,101081.78
2018-06-24T16:21:46.115Z,101088.03
2018-06-24T16:24:15.155Z,101083.98
2018-06-24T16:26:44.354Z,101085.45
2018-06-24T16:29:13.576Z,101086.69
2018-06-24T16:31:42.715Z,101085.45
2018-06-24T16:34:11.871Z,101077.88
2018-06-24T16:36:41.066Z,101090.02
2018-06-24T16:39:11.412Z,101087.41
2018-06-24T16:41:40.692Z,101082.91
2018-06-24T16:44:10.094Z,101081.56
2018-06-24T16:46:39.238Z,101079.80
2018-06-24T16:49:08.232Z,101080.81
2018-06-24T16:51:37.365Z,101078.98
2018-06-24T16:54:06.602Z,101076.40
2018-06-24T16:56:35.651Z,101071.00
2018-06-24T16:59:04.835Z,101069.65
2018-06-24T17:01:34.782Z,101069.31
2018-06-24T17:04:03.881Z,101064.41
2018-06-24T17:06:33.000Z,101067.59
2018-06-24T17:09:02.225Z,101071.64
2018-06-24T17:11:31.544Z,101068.94
2018-06-24T17:14:00.694Z,101068.94
2018-06-24T17:16:29.895Z,101065.53
2018-06-24T17:18:58.946Z,101063.17
2018-06-24T17:21:27.979Z,101065.88
2018-06-24T17:23:57.218Z,101063.17
2018-06-24T17:26:26.448Z,101060.14
2018-06-24T17:28:55.338Z,101058.79
2018-06-24T17:31:24.580Z,101062.34
2018-06-24T17:33:53.848Z,101058.30
2018-06-24T17:36:23.155Z,101059.98
2018-06-24T17:38:52.362Z,101058.15
2018-06-24T17:41:21.619Z,101053.39
2018-06-24T17:43:50.845Z,101061.83
2018-06-24T17:46:20.071Z,101057.78
2018-06-24T17:48:49.417Z,101068.08
2018-06-24T17:51:18.420Z,101062.69
2018-06-24T17:53:47.746Z,101067.59
2018-06-24T17:56:17.005Z,101065.38
2018-06-24T17:58:46.168Z,101065.27
2018-06-24T18:01:15.207Z,101063.17
2018-06-24T18:03:44.272Z,101071.64
2018-06-24T18:06:13.744Z,101070.78
2018-06-24T18:08:43.073Z,101065.88
2018-06-24T18:11:12.487Z,101068.94
2018-06-24T18:13:41.987Z,101067.59
2018-06-24T18:16:11.241Z,101074.34
2018-06-24T18:18:40.604Z,101077.03
2018-06-24T18:21:09.795Z,101077.19
2018-06-24T18:23:39.169Z,101070.29
2018-06-24T18:26:08.249Z,101074.49
2018-06-24T18:28:37.691Z,101078.53
2018-06-24T18:31:06.818Z,101072.28
2018-06-24T18:33:35.715Z,101078.16
2018-06-24T18:36:05.291Z,101079.89
2018-06-24T18:38:34.396Z,101074.12
2018-06-24T18:41:03.659Z,101075.95
2018-06-24T18:43:32.698Z,101075.62
2018-06-24T18:46:02.587Z,101067.52
2018-06-24T18:48:32.012Z,101076.97
2018-06-24T18:51:01.391Z,101076.97
2018-06-24T18:53:30.682Z,101073.90
2018-06-24T18:55:59.920Z,101069.48
2018-06-24T18:58:29.230Z,101077.57
2018-06-24T19:00:58.635Z,101078.58
2018-06-24T19:03:28.117Z,101039.70
2018-06-24T19:05:57.398Z,101087.66
2018-06-24T19:08:26.931Z,101087.28
2018-06-24T19:10:56.717Z,101085.94
2018-06-24T19:13:25.952Z,101087.80
2018-06-24T19:15:55.054Z,101089.64
2018-06-24T19:18:24.848Z,101085.22
2018-06-24T19:20:54.344Z,101091.97
2018-06-24T19:23:23.586Z,101095.16
2018-06-24T19:25:52.723Z,101092.12
2018-06-24T19:28:21.977Z,101092.98
2018-06-24T19:30:51.140Z,101092.98
2018-06-24T19:33:20.588Z,101090.89
2018-06-24T19:35:49.922Z,101093.58
2018-06-24T19:38:19.096Z,101096.80
2018-06-24T19:40:48.283Z,101091.89
2018-06-24T19:43:17.502Z,101091.52
2018-06-24T19:45:47.112Z,101091.89
2018-06-24T19:48:16.230Z,101093.25
2018-06-24T19:50:45.501Z,101092.88
2018-06-24T19:53:14.780Z,101088.83
2018-06-24T19:55:44.137Z,101087.85
2018-06-24T19:58:13.490Z,101086.12
2018-06-24T20:00:42.778Z,101087.97
2018-06-24T20:03:12.009Z,101084.78
2018-06-24T20:05:41.047Z,101079.05
2018-06-24T20:08:11.042Z,101079.53
2018-06-24T20:10:40.126Z,101084.93
2018-06-24T20:13:09.350Z,101074.14
2018-06-24T20:15:38.519Z,101065.19
2018-06-24T20:18:07.614Z,101065.19
2018-06-24T20:20:36.668Z,101062.00
2018-06-24T20:23:05.802Z,101059.42
2018-06-24T20:25:34.953Z,101059.42
2018-06-24T20:28:04.128Z,101060.77
2018-06-24T20:30:33.350Z,101056.39
2018-06-24T20:33:02.496Z,101048.14
2018-06-24T20:35:31.606Z,101045.59
2018-06-24T20:38:00.930Z,101054.55
2018-06-24T20:40:30.030Z,101055.52
2018-06-24T20:42:58.969Z,101055.52
2018-06-24T20:45:27.950Z,101047.06
2018-06-24T20:47:57.134Z,101050.62
2018-06-24T20:50:26.360Z,101052.45
2018-06-24T20:52:55.570Z,101049.91
2018-06-24T20:55:24.878Z,101051.59
2018-06-24T20:57:54.041Z,101049.91
2018-06-24T21:00:23.313Z,101045.00
2018-06-24T21:02:52.766Z,101043.66
2018-06-24T21:05:22.007Z,101052.72
2018-06-24T21:07:51.000Z,101050.89
2018-06-24T21:10:20.336Z,101054.59
2018-06-24T21:12:49.572Z,101042.58
2018-06-24T21:15:18.659Z,101050.66
2018-06-24T21:17:47.694Z,101050.66
2018-06-24T21:20:17.346Z,101049.80
2018-06-24T21:22:46.453Z,101042.72
2018-06-24T21:25:15.366Z,101045.91
2018-06-24T21:27:44.448Z,101036.95
2018-06-24T21:30:13.557Z,101037.45
2018-06-24T21:32:42.696Z,101033.92
2018-06-24T21:35:12.269Z,101037.97
2018-06-24T21:37:42.481Z,101036.63
2018-06-24T21:40:11.627Z,101037.22
2018-06-24T21:42:40.868Z,101037.22
2018-06-24T21:45:09.964Z,101036.66
2018-06-24T21:47:39.078Z,101031.13
2018-06-24T21:50:08.285Z,101024.04
2018-06-24T21:52:37.954Z,101033.48
2018-06-24T21:55:07.295Z,101028.58
2018-06-24T21:57:36.490Z,101022.32
2018-06-24T22:00:08.133Z,101022.81
2018-06-24T22:02:37.048Z,101023.67
2018-06-24T22:05:06.135Z,101013.37
2018-06-24T22:07:35.883Z,101009.33
2018-06-24T22:10:05.488Z,101015.20
2018-06-24T22:12:34.551Z,101010.67
2018-06-24T22:15:03.595Z,101013.00
2018-06-24T22:17:32.643Z,101016.06
2018-06-24T22:20:01.700Z,101011.65
2018-06-24T22:22:30.869Z,101011.65
2018-06-24T22:25:00.054Z,101021.95
2018-06-24T22:27:29.053Z,101013.52
2018-06-24T22:29:58.066Z,101008.12
2018-06-24T22:32:27.201Z,101012.17
2018-06-24T22:34:56.304Z,101012.17
2018-06-24T22:37:25.506Z,101009.47
2018-06-24T22:39:54.745Z,101009.10
2018-06-24T22:42:23.936Z,101010.45
2018-06-24T22:44:53.083Z,101006.03
2018-06-24T22:47:22.170Z,101003.71
2018-06-24T22:49:51.252Z,101002.84
2018-06-24T22:52:20.268Z,101014.98
2018-06-24T22:54:49.283Z,101008.73
2018-06-24T22:57:18.428Z,101013.30
2018-06-24T23:00:24.997Z,101008.02
2018-06-24T23:02:54.224Z,101007.16
2018-06-24T23:05:23.142Z,101007.69
2018-06-24T23:07:52.103Z,101012.70
2018-06-24T23:10:21.047Z,101006.45
2018-06-24T23:12:49.985Z,101008.28
2018-06-24T23:15:19.013Z,101000.72
2018-06-24T23:17:47.913Z,101007.46
2018-06-24T23:20:16.987Z,101007.09
2018-06-24T23:22:46.005Z,101004.88
2018-06-24T23:25:14.995Z,101006.23
2018-06-24T23:27:43.873Z,101000.98
2018-06-24T23:30:12.990Z,100998.14
2018-06-24T23:32:42.127Z,101000.50
2018-06-24T23:35:11.176Z,101002.67
2018-06-24T23:37:40.218Z,101001.84
2018-06-24T23:40:09.392Z,101001.47
2018-06-24T23:42:38.318Z,101002.45
2018-06-24T23:45:07.515Z,100996.57
2018-06-24T23:47:36.455Z,100994.85
2018-06-24T23:50:05.700Z,101002.94
2018-06-24T23:52:34.911Z,100999.41
2018-06-24T23:55:04.159Z,101001.73
2018-06-24T23:57:33.240Z,100997.20
